Time;durP1;ratioP1;P1;durP2;ratioP2;P2;SDS_P1;SDS_P2;PMS_P1;PMS_P2;Temp;Humidity;BMP_temperature;BMP_pressure;BME280_temperature;BME280_humidity;BME280_pressure;Samples;Min_cycle;Max_cycle;Signal;HPM_P1;HPM_P2
2022/01/11 00:00:31;;;;;;;6.93;5.90;;;1.00;99.90;;;;;;4958448;28;20189;-82
2022/01/11 00:02:57;;;;;;;6.07;5.40;;;1.00;99.90;;;;;;4957704;28;20185;-82
2022/01/11 00:07:51;;;;;;;8.97;5.63;;;0.90;99.90;;;;;;4957785;28;20681;-81
2022/01/11 00:10:26;;;;;;;8.33;5.50;;;0.90;99.90;;;;;;4957794;28;20264;-81
2022/01/11 00:12:52;;;;;;;7.40;5.50;;;0.90;99.90;;;;;;4957665;28;20178;-81
2022/01/11 00:15:18;;;;;;;14.33;6.10;;;0.90;99.90;;;;;;4936511;28;20205;-80
2022/01/11 00:17:44;;;;;;;7.73;6.07;;;0.90;99.90;;;;;;4957765;28;20208;-81
2022/01/11 00:20:13;;;;;;;7.07;5.60;;;1.00;99.90;;;;;;4942496;29;20176;-81
2022/01/11 00:22:57;;;;;;;11.20;5.43;;;1.00;99.90;;;;;;4959633;28;20219;-81
2022/01/11 00:25:23;;;;;;;9.03;5.47;;;1.00;99.90;;;;;;4942499;29;20213;-81
2022/01/11 00:27:48;;;;;;;11.47;6.20;;;1.10;99.90;;;;;;4941786;29;20201;-81
2022/01/11 00:30:14;;;;;;;11.53;5.23;;;1.00;99.90;;;;;;4941747;29;20551;-81
2022/01/11 00:32:45;;;;;;;9.37;5.90;;;1.10;99.90;;;;;;4960036;28;20177;-81
2022/01/11 00:35:15;;;;;;;8.50;5.63;;;1.00;99.90;;;;;;4941026;29;20686;-81
2022/01/11 00:37:41;;;;;;;8.93;6.33;;;1.00;99.90;;;;;;4959547;28;20260;-81
2022/01/11 00:40:08;;;;;;;6.37;5.07;;;1.00;99.90;;;;;;4959122;28;20208;-81
2022/01/11 00:42:34;;;;;;;11.40;6.10;;;1.00;99.90;;;;;;4959293;28;20562;-81
2022/01/11 00:45:02;;;;;;;8.43;5.63;;;1.00;99.90;;;;;;4959563;28;20251;-82
2022/01/11 00:47:27;;;;;;;8.67;5.70;;;1.10;99.90;;;;;;4958820;28;20708;-81
2022/01/11 00:49:54;;;;;;;9.80;5.67;;;1.10;99.90;;;;;;4959394;28;20178;-81
2022/01/11 00:52:19;;;;;;;9.33;5.93;;;1.20;99.90;;;;;;4942379;28;20177;-81
2022/01/11 00:54:45;;;;;;;7.17;5.70;;;1.20;99.90;;;;;;4942498;28;20193;-82
2022/01/11 00:57:11;;;;;;;5.70;5.10;;;1.20;99.90;;;;;;4966353;28;20204;-82
2022/01/11 00:59:36;;;;;;;10.53;5.90;;;1.30;99.90;;;;;;4941629;29;20431;-82
2022/01/11 01:02:02;;;;;;;10.27;5.90;;;1.30;99.90;;;;;;4958441;28;20262;-80
2022/01/11 01:04:28;;;;;;;7.63;5.37;;;1.30;99.90;;;;;;4942410;28;20218;-82
2022/01/11 01:06:54;;;;;;;10.53;5.70;;;1.30;99.90;;;;;;4941465;29;20740;-81
2022/01/11 01:09:19;;;;;;;11.57;6.20;;;1.50;99.90;;;;;;4939107;28;20174;-81
2022/01/11 01:11:46;;;;;;;12.20;6.00;;;1.30;99.90;;;;;;4957671;28;20173;-81
2022/01/11 01:14:13;;;;;;;8.67;5.70;;;1.40;99.90;;;;;;4956057;28;20285;-81
2022/01/11 01:16:39;;;;;;;6.70;5.67;;;1.40;99.90;;;;;;4938968;29;20180;-81
2022/01/11 01:19:05;;;;;;;6.83;6.13;;;1.40;99.90;;;;;;4940626;29;20180;-81
2022/01/11 01:21:37;;;;;;;8.60;5.57;;;1.40;99.90;;;;;;4941448;28;20232;-80
2022/01/11 01:24:05;;;;;;;10.33;5.57;;;1.40;99.90;;;;;;4958755;28;20201;-81
2022/01/11 01:26:31;;;;;;;8.43;6.10;;;1.40;99.90;;;;;;4941349;28;20654;-81
2022/01/11 01:28:59;;;;;;;8.70;5.87;;;1.40;99.90;;;;;;4958508;28;20262;-82
2022/01/11 01:31:28;;;;;;;10.00;5.47;;;1.50;99.90;;;;;;4941520;28;20178;-82
2022/01/11 01:33:55;;;;;;;8.47;7.30;;;1.50;99.90;;;;;;4941522;28;20205;-81
2022/01/11 01:36:21;;;;;;;8.90;5.67;;;1.50;99.90;;;;;;4941637;29;20255;-82
2022/01/11 01:38:47;;;;;;;10.80;6.50;;;1.50;99.90;;;;;;4958254;28;20211;-81
2022/01/11 01:41:16;;;;;;;10.93;6.07;;;1.50;99.90;;;;;;4958068;28;20207;-82
2022/01/11 01:43:45;;;;;;;8.40;5.30;;;1.50;99.90;;;;;;4957916;28;20201;-82
2022/01/11 01:46:10;;;;;;;9.13;5.90;;;1.50;99.90;;;;;;4962215;28;20220;-81
2022/01/11 01:48:37;;;;;;;10.30;6.30;;;1.50;99.90;;;;;;4961439;28;20690;-82
2022/01/11 01:51:05;;;;;;;7.00;5.57;;;1.50;99.90;;;;;;4958701;28;20236;-81
2022/01/11 01:53:32;;;;;;;8.57;5.27;;;1.50;99.90;;;;;;4958363;28;20174;-82
2022/01/11 01:55:58;;;;;;;7.57;5.93;;;1.50;99.90;;;;;;4958127;28;20288;-82
2022/01/11 01:58:25;;;;;;;9.77;6.30;;;1.50;99.90;;;;;;4940836;29;20181;-81
2022/01/11 02:00:54;;;;;;;9.97;6.27;;;1.60;99.90;;;;;;4958186;28;20178;-82
2022/01/11 02:03:26;;;;;;;11.80;6.23;;;1.50;99.90;;;;;;4941015;28;20174;-82
2022/01/11 02:05:53;;;;;;;12.23;6.50;;;1.60;99.90;;;;;;4940965;28;20560;-82
2022/01/11 02:08:18;;;;;;;12.27;6.47;;;1.70;99.90;;;;;;4937735;29;20200;-81
2022/01/11 02:10:44;;;;;;;7.03;5.40;;;1.70;99.90;;;;;;4949679;28;20243;-81
2022/01/11 02:13:10;;;;;;;8.07;6.37;;;1.70;99.90;;;;;;4958053;28;20171;-82
2022/01/11 02:15:36;;;;;;;9.03;6.07;;;2.10;99.90;;;;;;4957698;28;20192;-82
2022/01/11 02:18:14;;;;;;;7.80;5.53;;;1.70;99.90;;;;;;4940529;28;20177;-81
2022/01/11 02:20:43;;;;;;;8.03;5.83;;;1.70;99.90;;;;;;4957449;28;20177;-82
2022/01/11 02:23:09;;;;;;;8.53;6.17;;;1.70;99.90;;;;;;4940206;28;20177;-82
2022/01/11 02:25:35;;;;;;;9.53;5.33;;;1.70;99.90;;;;;;4957872;28;20200;-81
2022/01/11 02:28:02;;;;;;;9.60;6.70;;;1.70;99.90;;;;;;4958260;28;20198;-82
2022/01/11 02:30:32;;;;;;;12.33;6.40;;;1.70;99.90;;;;;;4958588;28;20212;-82
2022/01/11 02:32:57;;;;;;;8.50;6.30;;;1.70;99.90;;;;;;4940792;29;20177;-82
2022/01/11 02:35:23;;;;;;;9.07;5.70;;;1.80;99.90;;;;;;4941050;29;20256;-82
2022/01/11 02:37:49;;;;;;;8.10;6.20;;;2.20;99.90;;;;;;4957407;28;20178;-82
2022/01/11 02:40:15;;;;;;;12.57;6.60;;;1.90;99.90;;;;;;4943562;28;20177;-82
2022/01/11 02:42:41;;;;;;;10.67;5.80;;;1.90;99.90;;;;;;4956855;28;20209;-82
2022/01/11 02:45:20;;;;;;;7.53;6.03;;;1.70;99.90;;;;;;4941380;28;20268;-82
2022/01/11 02:47:47;;;;;;;8.23;5.67;;;1.80;99.90;;;;;;4960097;28;20196;-82
2022/01/11 02:50:13;;;;;;;9.77;6.50;;;1.80;99.90;;;;;;4950737;28;20181;-82
2022/01/11 02:52:39;;;;;;;11.33;6.40;;;1.80;99.90;;;;;;4964330;28;20252;-81
2022/01/11 02:55:15;;;;;;;10.57;6.83;;;2.30;99.90;;;;;;4944188;29;20226;-82
2022/01/11 02:57:42;;;;;;;11.83;6.23;;;1.80;99.90;;;;;;4958503;28;20178;-82
2022/01/11 03:00:14;;;;;;;9.90;6.20;;;1.80;99.90;;;;;;4949896;28;20193;-81
2022/01/11 03:02:39;;;;;;;10.23;5.80;;;1.80;99.90;;;;;;4939657;28;20178;-81
2022/01/11 03:05:07;;;;;;;8.67;6.70;;;1.80;99.90;;;;;;4938837;29;20209;-82
2022/01/11 03:07:32;;;;;;;15.20;7.00;;;1.80;99.90;;;;;;4939282;28;20220;-81
2022/01/11 03:10:11;;;;;;;8.57;6.13;;;1.80;99.90;;;;;;4951266;29;20677;-82
2022/01/11 03:12:37;;;;;;;12.43;7.83;;;1.80;99.90;;;;;;4957055;28;20171;-81
2022/01/11 03:15:03;;;;;;;12.23;7.07;;;1.80;99.90;;;;;;4956938;28;20263;-81
2022/01/11 03:17:28;;;;;;;10.77;7.37;;;1.80;99.90;;;;;;4939941;29;20209;-82
2022/01/11 03:19:54;;;;;;;12.87;7.77;;;1.80;99.90;;;;;;4939101;29;20207;-82
2022/01/11 03:22:20;;;;;;;14.37;8.30;;;1.80;99.90;;;;;;4939288;29;20186;-82
2022/01/11 03:24:46;;;;;;;11.87;9.07;;;1.70;99.90;;;;;;4938835;28;20215;-81
2022/01/11 03:27:12;;;;;;;15.27;8.93;;;1.70;99.90;;;;;;4956693;28;20210;-82
2022/01/11 03:29:39;;;;;;;14.60;9.13;;;1.70;99.90;;;;;;4940853;28;20269;-81
2022/01/11 03:32:06;;;;;;;16.90;10.40;;;1.60;99.90;;;;;;4937275;28;20189;-81
2022/01/11 03:34:32;;;;;;;18.70;10.37;;;1.60;99.90;;;;;;4942971;28;20329;-82
2022/01/11 03:36:58;;;;;;;17.00;9.93;;;1.70;99.90;;;;;;4940833;28;20700;-81
2022/01/11 03:39:27;;;;;;;12.93;9.07;;;1.70;99.90;;;;;;4942877;28;20512;-82
2022/01/11 03:41:53;;;;;;;13.57;9.90;;;1.70;99.90;;;;;;4943770;28;20178;-82
2022/01/11 03:44:20;;;;;;;20.63;12.33;;;1.70;99.90;;;;;;4953761;28;20581;-80
2022/01/11 03:46:45;;;;;;;21.60;11.87;;;1.70;99.90;;;;;;4962685;28;20183;-80
2022/01/11 03:49:11;;;;;;;83.80;48.93;;;1.70;99.90;;;;;;4966842;28;20184;-80
2022/01/11 03:51:39;;;;;;;19.20;13.37;;;2.40;99.90;;;;;;4965568;28;20602;-80
2022/01/11 03:54:13;;;;;;;16.43;10.63;;;1.90;99.90;;;;;;4953629;28;20201;-80
2022/01/11 03:59:14;;;;;;;18.87;10.93;;;2.00;99.90;;;;;;5134601;23;20228;-80
2022/01/11 04:01:40;;;;;;;19.30;11.43;;;2.10;99.90;;;;;;4961303;28;20236;-80
2022/01/11 04:04:07;;;;;;;21.73;11.33;;;2.10;99.90;;;;;;4944490;28;20193;-81
2022/01/11 04:06:33;;;;;;;13.73;10.23;;;2.40;99.90;;;;;;4952354;28;20254;-82
2022/01/11 04:08:59;;;;;;;18.73;11.67;;;2.00;99.90;;;;;;4954505;28;20263;-82
2022/01/11 04:11:24;;;;;;;23.07;15.40;;;2.00;99.90;;;;;;4952542;28;20212;-81
2022/01/11 04:13:50;;;;;;;17.63;12.63;;;2.00;99.90;;;;;;4938635;29;20185;-81
2022/01/11 04:16:16;;;;;;;20.13;11.23;;;2.00;99.90;;;;;;4971885;28;20178;-81
2022/01/11 04:18:41;;;;;;;19.87;10.30;;;2.00;99.90;;;;;;4942686;28;20201;-82
2022/01/11 04:21:07;;;;;;;15.33;10.13;;;2.00;99.90;;;;;;4951414;28;20228;-81
2022/01/11 04:23:34;;;;;;;18.33;10.40;;;2.50;99.90;;;;;;4939275;28;20173;-82
2022/01/11 04:26:00;;;;;;;23.23;11.10;;;2.10;99.90;;;;;;4967066;28;20180;-81
2022/01/11 04:28:27;;;;;;;17.00;10.13;;;2.00;99.90;;;;;;4971404;28;20235;-81
2022/01/11 04:30:58;;;;;;;18.37;11.27;;;2.40;99.90;;;;;;4974510;28;20181;-80
2022/01/11 04:33:25;;;;;;;16.77;10.67;;;2.00;99.90;;;;;;4969970;28;20173;-82
2022/01/11 04:35:51;;;;;;;14.30;11.30;;;2.00;99.90;;;;;;4951090;28;20185;-81
2022/01/11 04:38:18;;;;;;;17.13;11.17;;;2.10;99.90;;;;;;4943546;29;21762;-81
2022/01/11 04:40:44;;;;;;;14.50;10.80;;;2.10;99.90;;;;;;4971720;28;20177;-82
2022/01/11 04:43:10;;;;;;;16.60;11.97;;;2.10;99.90;;;;;;4970526;28;20180;-81
2022/01/11 04:45:36;;;;;;;20.63;11.00;;;2.10;99.90;;;;;;4972753;28;20189;-82
2022/01/11 04:48:01;;;;;;;27.77;11.83;;;2.70;99.90;;;;;;4974045;28;20211;-80
2022/01/11 04:50:28;;;;;;;18.20;10.70;;;2.10;99.90;;;;;;4974550;28;20209;-81
2022/01/11 04:52:55;;;;;;;19.33;11.37;;;2.10;99.90;;;;;;4950297;28;20298;-82
2022/01/11 04:55:21;;;;;;;20.53;11.87;;;2.00;99.90;;;;;;4944534;29;20177;-81
2022/01/11 04:57:47;;;;;;;17.53;10.80;;;2.10;99.90;;;;;;4970055;28;20282;-82
2022/01/11 05:00:16;;;;;;;19.47;11.73;;;2.20;99.90;;;;;;4973626;28;20196;-81
2022/01/11 05:02:42;;;;;;;15.33;10.67;;;2.20;99.90;;;;;;4956927;28;20205;-82
2022/01/11 05:05:08;;;;;;;17.53;11.70;;;2.20;99.90;;;;;;4962921;28;20696;-83
2022/01/11 05:07:34;;;;;;;17.63;11.73;;;2.20;99.90;;;;;;4963149;28;20283;-82
2022/01/11 05:10:00;;;;;;;21.90;12.00;;;2.20;99.90;;;;;;4944407;29;20177;-82
2022/01/11 05:12:25;;;;;;;19.80;12.63;;;2.10;99.90;;;;;;4932216;28;20229;-82
2022/01/11 05:14:51;;;;;;;18.20;11.90;;;2.30;99.90;;;;;;4948365;29;20700;-82
2022/01/11 05:17:17;;;;;;;18.67;12.37;;;2.10;99.90;;;;;;4962626;28;20177;-81
2022/01/11 05:19:43;;;;;;;19.57;13.20;;;2.30;99.90;;;;;;4963352;28;20178;-82
2022/01/11 05:22:09;;;;;;;21.37;12.87;;;2.60;99.90;;;;;;4929632;29;20184;-82
2022/01/11 05:24:34;;;;;;;22.23;13.50;;;2.10;99.90;;;;;;4965109;28;20199;-81
2022/01/11 05:27:00;;;;;;;20.40;14.40;;;2.10;99.90;;;;;;4945818;29;20169;-82
2022/01/11 05:29:26;;;;;;;24.73;14.70;;;2.10;99.90;;;;;;4965348;28;20190;-81
2022/01/11 05:31:51;;;;;;;25.87;15.13;;;2.10;99.90;;;;;;4962589;28;20206;-81
2022/01/11 05:34:17;;;;;;;22.57;14.20;;;2.10;99.90;;;;;;4962722;28;20281;-81
2022/01/11 05:36:43;;;;;;;22.90;14.87;;;2.80;99.90;;;;;;4946960;28;20193;-79
2022/01/11 05:39:08;;;;;;;29.73;14.77;;;2.10;99.90;;;;;;4961512;28;20795;-81
2022/01/11 05:41:35;;;;;;;29.50;15.53;;;2.20;99.90;;;;;;4959104;28;20171;-82
2022/01/11 05:44:01;;;;;;;27.23;14.97;;;2.10;99.90;;;;;;4960657;28;20178;-81
2022/01/11 05:46:26;;;;;;;23.77;15.30;;;2.20;99.90;;;;;;4960789;28;20176;-81
2022/01/11 05:48:52;;;;;;;26.17;15.37;;;2.20;99.90;;;;;;4944277;29;20929;-82
2022/01/11 05:51:18;;;;;;;25.83;16.07;;;2.20;99.90;;;;;;4961030;28;20177;-82
2022/01/11 05:53:44;;;;;;;25.30;14.53;;;2.20;99.90;;;;;;4960793;28;20252;-82
2022/01/11 05:56:10;;;;;;;26.50;16.30;;;2.20;99.90;;;;;;4960431;28;20175;-81
2022/01/11 05:58:36;;;;;;;29.20;15.40;;;2.20;99.90;;;;;;4973850;28;20216;-81
2022/01/11 06:01:03;;;;;;;30.47;16.03;;;2.40;99.90;;;;;;4969253;28;20661;-81
2022/01/11 06:03:28;;;;;;;27.97;15.60;;;2.30;99.90;;;;;;4943782;29;20231;-81
2022/01/11 06:05:54;;;;;;;27.80;16.20;;;2.90;99.90;;;;;;4944041;29;20173;-84
2022/01/11 06:08:20;;;;;;;25.43;15.37;;;2.20;99.90;;;;;;4978914;28;20198;-80
2022/01/11 06:10:46;;;;;;;28.13;16.07;;;2.20;99.90;;;;;;4962154;29;20185;-82
2022/01/11 06:13:12;;;;;;;22.53;14.83;;;2.20;99.90;;;;;;4976489;28;20224;-82
2022/01/11 06:15:38;;;;;;;23.70;15.67;;;2.40;99.90;;;;;;4963880;28;20180;-83
2022/01/11 06:18:05;;;;;;;26.10;15.07;;;2.20;99.90;;;;;;4963063;28;20515;-83
2022/01/11 06:20:31;;;;;;;26.23;15.07;;;2.20;99.90;;;;;;4963692;28;20165;-83
2022/01/11 06:22:57;;;;;;;23.73;15.30;;;2.10;99.90;;;;;;4963279;28;20178;-81
2022/01/11 06:25:23;;;;;;;24.67;15.40;;;2.40;99.90;;;;;;4945571;29;20177;-83
2022/01/11 06:27:49;;;;;;;24.57;14.57;;;2.70;99.90;;;;;;4962134;28;20225;-83
2022/01/11 06:30:16;;;;;;;29.50;14.97;;;2.10;99.90;;;;;;4961476;28;20265;-81
2022/01/11 06:32:43;;;;;;;27.90;15.67;;;2.00;99.90;;;;;;4941811;28;20213;-82
2022/01/11 06:35:10;;;;;;;33.73;16.47;;;2.00;99.90;;;;;;4958914;28;20166;-83
2022/01/11 06:37:36;;;;;;;25.07;14.97;;;2.00;99.90;;;;;;4962344;28;20209;-82
2022/01/11 06:40:05;;;;;;;27.30;15.87;;;2.60;99.90;;;;;;4944388;29;20189;-82
2022/01/11 06:42:32;;;;;;;25.87;15.60;;;2.00;99.90;;;;;;4940429;29;20189;-83
2022/01/11 06:44:58;;;;;;;32.57;17.70;;;2.00;99.90;;;;;;4960584;28;20933;-81
2022/01/11 06:47:23;;;;;;;41.33;21.97;;;2.00;99.90;;;;;;4961464;28;20236;-83
2022/01/11 06:49:49;;;;;;;34.63;18.93;;;2.00;99.90;;;;;;4962603;28;20181;-82
2022/01/11 06:52:15;;;;;;;30.13;19.43;;;2.30;99.90;;;;;;4966875;28;20179;-83
2022/01/11 06:54:41;;;;;;;30.13;17.23;;;2.00;99.90;;;;;;4970215;28;20184;-83
2022/01/11 06:57:08;;;;;;;32.00;17.27;;;2.00;99.90;;;;;;4968025;28;20238;-81
2022/01/11 06:59:36;;;;;;;54.27;26.83;;;2.00;99.90;;;;;;4974592;28;20212;-82
2022/01/11 07:02:06;;;;;;;33.17;19.03;;;2.00;99.90;;;;;;4970964;28;20177;-82
2022/01/11 07:04:33;;;;;;;34.70;18.37;;;2.00;99.90;;;;;;4976040;28;20206;-81
2022/01/11 07:06:58;;;;;;;31.83;17.83;;;2.00;99.90;;;;;;4961441;28;20196;-81
2022/01/11 07:09:24;;;;;;;35.27;20.30;;;2.00;99.90;;;;;;4955519;28;20224;-84
2022/01/11 07:11:50;;;;;;;35.30;18.13;;;2.00;99.90;;;;;;4960700;28;20198;-80
2022/01/11 07:14:16;;;;;;;33.87;17.60;;;2.10;99.90;;;;;;4960763;28;20165;-80
2022/01/11 07:16:43;;;;;;;39.60;20.17;;;2.00;99.90;;;;;;4963120;28;20773;-82
2022/01/11 07:19:10;;;;;;;44.83;19.87;;;2.00;99.90;;;;;;4968027;28;20220;-82
2022/01/11 07:21:35;;;;;;;31.13;18.57;;;2.00;99.90;;;;;;4973711;28;20592;-82
2022/01/11 07:24:02;;;;;;;36.47;20.20;;;1.90;99.90;;;;;;4964710;28;20260;-81
2022/01/11 07:26:27;;;;;;;34.50;19.67;;;2.00;99.90;;;;;;4965700;28;20263;-83
2022/01/11 07:28:53;;;;;;;45.33;21.83;;;2.10;99.90;;;;;;4969251;28;20223;-82
2022/01/11 07:31:19;;;;;;;38.70;20.17;;;1.90;99.90;;;;;;4970550;28;20694;-82
2022/01/11 07:33:44;;;;;;;37.13;20.37;;;1.90;99.90;;;;;;4962301;28;20709;-82
2022/01/11 07:36:10;;;;;;;40.33;20.23;;;2.00;99.90;;;;;;4939653;28;20174;-81
2022/01/11 07:38:36;;;;;;;37.83;21.23;;;2.00;99.90;;;;;;4968029;28;20316;-82
2022/01/11 07:41:02;;;;;;;44.67;22.63;;;2.00;99.90;;;;;;4958851;28;20201;-82
2022/01/11 07:43:27;;;;;;;40.53;21.57;;;2.00;99.90;;;;;;4959530;28;20183;-81
2022/01/11 07:45:53;;;;;;;46.07;22.93;;;2.00;99.90;;;;;;4960751;28;20231;-82
2022/01/11 07:48:19;;;;;;;39.43;21.47;;;2.10;99.90;;;;;;4969468;28;20204;-81
2022/01/11 07:50:45;;;;;;;44.10;21.77;;;2.00;99.90;;;;;;4969061;28;20295;-81
2022/01/11 07:53:10;;;;;;;40.97;21.73;;;2.40;99.90;;;;;;4962796;28;20252;-82
2022/01/11 07:55:38;;;;;;;66.23;29.83;;;2.00;99.90;;;;;;4963424;28;20215;-81
2022/01/11 07:58:03;;;;;;;41.87;21.40;;;2.40;99.90;;;;;;4962790;28;20197;-81
2022/01/11 08:00:31;;;;;;;43.33;22.40;;;2.00;99.90;;;;;;4966591;28;20710;-82
2022/01/11 08:02:56;;;;;;;39.67;20.77;;;2.00;99.90;;;;;;4967562;28;20173;-80
2022/01/11 08:05:22;;;;;;;35.47;21.07;;;2.40;99.90;;;;;;4961966;28;20182;-80
2022/01/11 08:07:48;;;;;;;36.97;21.23;;;2.10;99.90;;;;;;4962736;28;20228;-83
2022/01/11 08:10:18;;;;;;;38.60;20.20;;;2.90;99.90;;;;;;4962848;28;20174;-81
2022/01/11 08:12:44;;;;;;;35.73;19.77;;;2.10;99.90;;;;;;4962676;28;20174;-83
2022/01/11 08:15:10;;;;;;;33.17;18.50;;;2.20;99.90;;;;;;4961587;28;20234;-80
2022/01/11 08:17:35;;;;;;;33.90;19.50;;;2.20;99.90;;;;;;4969155;28;20206;-81
2022/01/11 08:20:02;;;;;;;29.47;18.67;;;2.30;99.90;;;;;;4976981;28;20179;-80
2022/01/11 08:22:27;;;;;;;29.30;17.73;;;2.80;99.90;;;;;;4962451;28;20177;-80
2022/01/11 08:24:53;;;;;;;31.87;18.90;;;2.30;99.90;;;;;;4950209;28;20284;-82
2022/01/11 08:27:19;;;;;;;38.23;20.30;;;2.30;99.90;;;;;;4962528;28;20671;-80
2022/01/11 08:29:46;;;;;;;34.70;19.00;;;2.30;99.90;;;;;;4966702;28;20178;-80
2022/01/11 08:32:12;;;;;;;30.77;19.50;;;2.30;99.90;;;;;;4963863;28;20188;-80
2022/01/11 08:34:37;;;;;;;32.77;18.97;;;2.30;99.90;;;;;;4943517;28;20272;-82
2022/01/11 08:37:04;;;;;;;46.10;23.10;;;2.40;99.90;;;;;;4962514;28;20172;-82
2022/01/11 08:39:30;;;;;;;26.80;16.70;;;2.40;99.90;;;;;;4952027;28;20704;-81
2022/01/11 08:41:56;;;;;;;50.20;23.80;;;2.80;99.90;;;;;;4967606;28;20169;-82
2022/01/11 08:44:24;;;;;;;26.27;16.07;;;2.50;99.90;;;;;;4966465;28;20180;-81
2022/01/11 08:46:50;;;;;;;37.53;19.70;;;2.50;99.90;;;;;;4963372;28;20252;-80
2022/01/11 08:49:17;;;;;;;27.37;16.30;;;2.50;99.90;;;;;;4954052;28;20669;-80
2022/01/11 08:51:43;;;;;;;22.07;14.83;;;2.50;99.90;;;;;;4961289;28;20199;-81
2022/01/11 08:54:11;;;;;;;23.90;15.73;;;2.60;99.90;;;;;;4953275;28;20221;-81
2022/01/11 08:56:37;;;;;;;22.87;15.20;;;2.60;99.90;;;;;;4975583;28;20721;-80
2022/01/11 08:59:03;;;;;;;24.73;15.13;;;2.60;99.90;;;;;;4945668;29;20243;-81
2022/01/11 09:01:31;;;;;;;20.53;14.77;;;2.70;99.90;;;;;;4963660;28;20641;-79
2022/01/11 09:03:58;;;;;;;21.43;15.43;;;2.70;99.90;;;;;;4962738;28;20177;-80
2022/01/11 09:06:24;;;;;;;24.90;15.90;;;2.70;99.90;;;;;;4963427;28;20249;-82
2022/01/11 09:08:50;;;;;;;24.03;15.30;;;2.70;99.90;;;;;;4973862;28;20217;-79
2022/01/11 09:11:16;;;;;;;28.13;17.10;;;2.80;99.90;;;;;;4962597;28;20178;-80
2022/01/11 09:13:42;;;;;;;22.33;13.73;;;3.50;99.90;;;;;;4945360;29;20246;-82
2022/01/11 09:16:08;;;;;;;21.13;13.80;;;3.10;99.90;;;;;;4945561;29;20189;-81
2022/01/11 09:18:34;;;;;;;16.97;12.90;;;2.80;99.90;;;;;;4962290;28;20631;-81
2022/01/11 09:21:03;;;;;;;18.57;13.70;;;2.80;99.90;;;;;;4970250;28;20181;-79
2022/01/11 09:23:29;;;;;;;16.37;12.33;;;2.80;99.90;;;;;;4968220;28;20218;-81
2022/01/11 09:25:55;;;;;;;16.93;13.03;;;3.00;99.90;;;;;;4962696;28;20183;-80
2022/01/11 09:28:21;;;;;;;23.77;13.53;;;2.90;99.90;;;;;;4962697;28;20308;-80
2022/01/11 09:30:47;;;;;;;35.33;19.53;;;3.00;99.90;;;;;;4965581;28;20187;-80
2022/01/11 09:33:13;;;;;;;19.90;12.77;;;3.00;99.90;;;;;;4964090;28;20181;-79
2022/01/11 09:35:39;;;;;;;18.03;12.23;;;3.00;99.90;;;;;;4968933;28;20200;-81
2022/01/11 09:38:05;;;;;;;17.03;12.00;;;3.10;99.90;;;;;;4953801;29;20218;-79
2022/01/11 09:40:30;;;;;;;19.03;13.07;;;3.10;99.90;;;;;;4974256;28;20266;-80
2022/01/11 09:42:56;;;;;;;16.13;11.97;;;3.20;99.90;;;;;;4968556;28;20236;-80
2022/01/11 09:45:22;;;;;;;17.33;12.50;;;3.20;99.90;;;;;;4959488;28;20191;-80
2022/01/11 09:47:47;;;;;;;16.10;11.43;;;3.20;99.90;;;;;;4973388;28;20209;-80
2022/01/11 09:50:14;;;;;;;16.47;12.30;;;3.20;99.90;;;;;;4974555;28;20184;-81
2022/01/11 09:52:41;;;;;;;19.07;11.80;;;3.30;99.90;;;;;;4973970;28;20223;-81
2022/01/11 09:55:09;;;;;;;41.27;24.47;;;3.40;99.90;;;;;;4972364;28;20208;-80
2022/01/11 09:57:35;;;;;;;57.17;33.30;;;3.40;99.90;;;;;;4973608;28;20192;-81
2022/01/11 10:00:03;;;;;;;17.87;11.93;;;3.60;99.90;;;;;;4969195;28;20282;-77
2022/01/11 10:02:29;;;;;;;18.97;11.90;;;3.40;99.90;;;;;;4971121;28;20181;-82
2022/01/11 10:04:58;;;;;;;17.80;11.97;;;3.50;99.90;;;;;;4969604;28;20241;-81
2022/01/11 10:07:31;;;;;;;15.30;11.07;;;3.60;99.90;;;;;;4974226;28;20223;-81
2022/01/11 10:09:58;;;;;;;14.17;11.63;;;3.90;99.90;;;;;;4971053;28;20181;-79
2022/01/11 10:12:23;;;;;;;14.40;10.97;;;3.70;99.90;;;;;;4970353;28;20174;-80
2022/01/11 10:14:56;;;;;;;16.10;9.87;;;3.70;99.90;;;;;;4969738;28;20208;-79
2022/01/11 10:17:30;;;;;;;17.77;10.47;;;3.70;99.90;;;;;;4958990;28;20169;-77
2022/01/11 10:20:16;;;;;;;14.30;10.40;;;3.70;99.90;;;;;;4959975;28;20709;-77
2022/01/11 10:22:51;;;;;;;13.73;10.47;;;3.80;99.90;;;;;;4950714;28;20181;-80
2022/01/11 10:25:18;;;;;;;12.47;10.00;;;3.80;99.90;;;;;;4969854;28;20211;-80
2022/01/11 10:27:51;;;;;;;10.80;9.30;;;3.90;99.90;;;;;;4967706;28;20228;-80
2022/01/11 10:30:20;;;;;;;14.60;10.03;;;3.90;99.90;;;;;;4975332;28;20260;-79
2022/01/11 10:32:48;;;;;;;17.33;11.33;;;3.90;99.90;;;;;;4959906;28;20192;-80
2022/01/11 10:35:26;;;;;;;14.77;10.17;;;4.60;99.90;;;;;;4943147;28;20178;-79
2022/01/11 10:37:54;;;;;;;13.97;10.20;;;4.00;99.90;;;;;;4938966;29;20213;-80
2022/01/11 10:40:24;;;;;;;12.33;9.63;;;4.00;99.90;;;;;;4930889;28;20209;-83
2022/01/11 10:42:56;;;;;;;13.10;10.03;;;4.00;99.90;;;;;;4953678;28;20264;-79
2022/01/11 10:45:29;;;;;;;12.97;9.70;;;4.00;99.90;;;;;;4945323;28;20183;-81
2022/01/11 10:47:57;;;;;;;16.47;10.57;;;4.10;99.90;;;;;;4952239;28;20247;-81
2022/01/11 10:50:28;;;;;;;12.93;9.27;;;4.40;99.90;;;;;;4930234;29;20281;-82
2022/01/11 10:52:59;;;;;;;13.30;9.23;;;4.30;99.90;;;;;;4954748;28;20177;-81
2022/01/11 10:55:29;;;;;;;13.10;9.73;;;4.80;99.90;;;;;;4956657;28;20171;-79
2022/01/11 10:58:07;;;;;;;14.83;9.93;;;4.40;99.90;;;;;;4951316;28;20193;-81
2022/01/11 11:00:35;;;;;;;11.77;8.77;;;4.30;99.90;;;;;;4929497;28;20254;-81
2022/01/11 11:03:01;;;;;;;11.80;9.10;;;4.40;99.90;;;;;;4932934;28;20214;-80
2022/01/11 11:05:31;;;;;;;10.10;8.83;;;4.50;99.90;;;;;;4937975;29;20205;-80
2022/01/11 11:08:07;;;;;;;14.90;9.23;;;4.40;99.90;;;;;;4932580;28;20671;-80
2022/01/11 11:10:44;;;;;;;11.47;8.93;;;5.00;99.90;;;;;;4951680;28;20184;-81
2022/01/11 11:13:24;;;;;;;9.10;8.20;;;4.40;99.90;;;;;;4952618;28;20178;-80
2022/01/11 11:15:51;;;;;;;9.47;8.00;;;4.40;99.90;;;;;;4946970;28;20651;-81
2022/01/11 11:18:43;;;;;;;14.67;9.70;;;5.00;99.90;;;;;;4950683;28;20677;-83
2022/01/11 11:21:16;;;;;;;10.67;8.70;;;4.60;99.90;;;;;;4948939;28;20670;-80
2022/01/11 11:23:42;;;;;;;11.73;9.30;;;4.60;99.90;;;;;;4940809;29;20280;-82
2022/01/11 11:26:08;;;;;;;10.07;9.03;;;4.60;99.90;;;;;;4953272;28;20199;-79
2022/01/11 11:28:35;;;;;;;11.33;9.23;;;4.60;99.90;;;;;;4958371;28;20217;-82
2022/01/11 11:31:02;;;;;;;9.80;8.60;;;4.50;99.90;;;;;;4965171;28;20190;-81
2022/01/11 11:33:28;;;;;;;9.77;8.57;;;4.60;99.90;;;;;;4935148;28;20175;-82
2022/01/11 11:35:56;;;;;;;10.00;8.60;;;5.00;99.90;;;;;;4954134;28;20193;-82
2022/01/11 11:38:27;;;;;;;9.83;8.70;;;4.60;99.90;;;;;;4955752;28;20201;-85
2022/01/11 11:40:55;;;;;;;8.97;8.07;;;4.60;99.90;;;;;;4964395;28;20643;-83
2022/01/11 11:43:21;;;;;;;9.87;8.27;;;4.70;99.90;;;;;;4966628;28;20265;-81
2022/01/11 11:45:47;;;;;;;10.53;8.07;;;4.70;99.90;;;;;;4943107;29;20195;-82
2022/01/11 11:48:16;;;;;;;11.73;8.63;;;4.80;99.90;;;;;;4947976;28;20596;-81
2022/01/11 11:50:52;;;;;;;10.00;8.60;;;5.40;99.90;;;;;;4954890;28;20250;-84
2022/01/11 11:53:30;;;;;;;9.73;8.73;;;4.80;99.90;;;;;;4954813;28;20180;-82
2022/01/11 11:56:17;;;;;;;10.03;8.47;;;4.80;99.90;;;;;;4945387;28;20177;-80
2022/01/11 11:58:46;;;;;;;13.33;8.97;;;4.60;99.90;;;;;;4962129;28;20203;-82
2022/01/11 12:01:44;;;;;;;10.77;8.43;;;5.00;99.90;;;;;;4946561;29;20174;-83
2022/01/11 12:04:16;;;;;;;8.00;7.20;;;4.60;99.90;;;;;;4950194;28;20261;-81
2022/01/11 12:06:44;;;;;;;8.27;7.47;;;4.60;99.90;;;;;;4966133;28;20177;-81
2022/01/11 12:09:15;;;;;;;7.33;6.17;;;4.80;99.90;;;;;;4957306;28;20205;-82
2022/01/11 12:11:48;;;;;;;7.40;6.50;;;4.60;99.90;;;;;;4960494;28;20177;-81
2022/01/11 12:14:32;;;;;;;6.70;6.10;;;4.60;99.90;;;;;;4957512;28;20207;-83
2022/01/11 12:17:17;;;;;;;8.53;6.27;;;4.50;99.90;;;;;;4944803;28;20180;-82
2022/01/11 12:19:53;;;;;;;5.80;5.30;;;4.40;99.90;;;;;;4959174;28;20507;-82
2022/01/11 12:22:20;;;;;;;6.20;5.60;;;4.40;99.90;;;;;;4960958;28;20228;-81
2022/01/11 12:24:48;;;;;;;7.27;5.53;;;4.90;99.90;;;;;;4944154;29;20179;-81
2022/01/11 12:27:16;;;;;;;9.03;7.70;;;4.70;99.90;;;;;;4961042;28;20304;-83
2022/01/11 12:29:52;;;;;;;9.00;7.93;;;4.30;99.90;;;;;;4961823;28;20592;-81
2022/01/11 12:32:19;;;;;;;13.03;10.30;;;4.30;99.90;;;;;;4970051;28;20760;-81
2022/01/11 12:34:49;;;;;;;8.40;6.90;;;4.40;99.90;;;;;;4964836;28;20737;-81
2022/01/11 12:37:28;;;;;;;7.13;5.90;;;5.00;99.90;;;;;;4972561;28;20182;-83
2022/01/11 12:40:00;;;;;;;7.17;6.10;;;4.40;99.90;;;;;;4972005;28;20177;-82
2022/01/11 12:42:27;;;;;;;17.80;12.77;;;4.40;99.90;;;;;;4971672;28;20171;-81
2022/01/11 12:47:22;;;;;;;7.70;6.90;;;4.20;99.90;;;;;;4971406;28;20178;-82
2022/01/11 12:50:09;;;;;;;6.53;5.30;;;4.30;99.90;;;;;;4971441;28;21038;-81
2022/01/11 12:52:35;;;;;;;8.00;6.00;;;4.40;99.90;;;;;;4971529;28;20169;-82